Zele, Belgium
Current Conditions -  °F | °C
As of 1:20 AM on Friday 28 Nov 2014 (Local Time) from EBAW Reporting Station
Overcast Overcast  
Wind Chill: 42°   Ceiling: 4400
Heat Index: 46°   Visibility: 3mi
Dew Point: 45°   Wind: 8mph
Humidity: 93%   Direction: 100°E
Pressure: 29.68"   Gusts: NA
Location:  51.07°N, 4.04°E
Report Text: EBAW 280020Z AUTO 10007KT 5000 OVC044/// 08/07 Q1005
Loading
Personal Weather Stations






























Interactive Weather Map New forecast layout! Learn more

10-Day Weather Forecast

Advertisements
Track Severe Weather on mobile